sensor_id;sensor_type;location;lat;lon;timestamp;P1;durP1;ratioP1;P2;durP2;ratioP2
51915;SDS011;37942;53.218;6.548;2022-09-09T00:00:14;28.52;;;15.30;;
51915;SDS011;37942;53.218;6.548;2022-09-09T00:02:50;24.35;;;14.73;;
51915;SDS011;37942;53.218;6.548;2022-09-09T00:05:31;26.92;;;14.68;;
51915;SDS011;37942;53.218;6.548;2022-09-09T00:08:02;24.10;;;14.07;;
51915;SDS011;37942;53.218;6.548;2022-09-09T00:10:37;27.73;;;14.77;;
51915;SDS011;37942;53.218;6.548;2022-09-09T00:13:22;24.30;;;14.23;;
51915;SDS011;37942;53.218;6.548;2022-09-09T00:21:13;22.60;;;14.75;;
51915;SDS011;37942;53.218;6.548;2022-09-09T00:23:44;26.15;;;15.50;;
51915;SDS011;37942;53.218;6.548;2022-09-09T00:26:33;25.73;;;15.55;;
51915;SDS011;37942;53.218;6.548;2022-09-09T00:31:33;26.98;;;16.08;;
51915;SDS011;37942;53.218;6.548;2022-09-09T00:34:21;27.58;;;15.57;;
51915;SDS011;37942;53.218;6.548;2022-09-09T00:36:49;27.92;;;15.93;;
51915;SDS011;37942;53.218;6.548;2022-09-09T00:39:34;28.48;;;16.10;;
51915;SDS011;37942;53.218;6.548;2022-09-09T00:42:13;29.17;;;17.60;;
51915;SDS011;37942;53.218;6.548;2022-09-09T00:44:46;22.75;;;15.85;;
51915;SDS011;37942;53.218;6.548;2022-09-09T00:52:36;25.67;;;16.58;;
51915;SDS011;37942;53.218;6.548;2022-09-09T00:57:51;26.95;;;16.27;;
51915;SDS011;37942;53.218;6.548;2022-09-09T01:05:12;22.13;;;15.00;;
51915;SDS011;37942;53.218;6.548;2022-09-09T01:07:38;21.92;;;14.52;;
51915;SDS011;37942;53.218;6.548;2022-09-09T01:10:11;22.02;;;14.35;;
51915;SDS011;37942;53.218;6.548;2022-09-09T01:12:43;24.45;;;14.48;;
51915;SDS011;37942;53.218;6.548;2022-09-09T01:15:14;23.48;;;14.85;;
51915;SDS011;37942;53.218;6.548;2022-09-09T01:17:53;21.75;;;14.82;;
51915;SDS011;37942;53.218;6.548;2022-09-09T01:20:25;25.55;;;15.55;;
51915;SDS011;37942;53.218;6.548;2022-09-09T01:28:22;24.85;;;15.30;;
51915;SDS011;37942;53.218;6.548;2022-09-09T01:30:51;25.42;;;14.68;;
51915;SDS011;37942;53.218;6.548;2022-09-09T01:33:17;29.67;;;15.27;;
51915;SDS011;37942;53.218;6.548;2022-09-09T01:35:48;27.08;;;16.42;;
51915;SDS011;37942;53.218;6.548;2022-09-09T01:38:16;27.70;;;15.25;;
51915;SDS011;37942;53.218;6.548;2022-09-09T01:40:43;29.13;;;14.73;;
51915;SDS011;37942;53.218;6.548;2022-09-09T01:43:09;24.63;;;14.88;;
51915;SDS011;37942;53.218;6.548;2022-09-09T01:45:39;22.80;;;14.43;;
51915;SDS011;37942;53.218;6.548;2022-09-09T01:48:07;23.17;;;13.70;;
51915;SDS011;37942;53.218;6.548;2022-09-09T01:50:33;23.52;;;14.15;;
51915;SDS011;37942;53.218;6.548;2022-09-09T01:52:59;22.63;;;13.63;;
51915;SDS011;37942;53.218;6.548;2022-09-09T01:55:31;22.95;;;13.23;;
51915;SDS011;37942;53.218;6.548;2022-09-09T01:58:06;25.00;;;14.57;;
51915;SDS011;37942;53.218;6.548;2022-09-09T02:00:34;25.03;;;15.20;;
51915;SDS011;37942;53.218;6.548;2022-09-09T02:03:10;24.25;;;15.05;;
51915;SDS011;37942;53.218;6.548;2022-09-09T02:05:38;27.58;;;15.98;;
51915;SDS011;37942;53.218;6.548;2022-09-09T02:08:08;25.23;;;14.68;;
51915;SDS011;37942;53.218;6.548;2022-09-09T02:13:01;30.33;;;15.77;;
51915;SDS011;37942;53.218;6.548;2022-09-09T02:15:34;25.20;;;16.40;;
51915;SDS011;37942;53.218;6.548;2022-09-09T02:18:03;25.75;;;15.40;;
51915;SDS011;37942;53.218;6.548;2022-09-09T02:20:32;27.48;;;17.30;;
51915;SDS011;37942;53.218;6.548;2022-09-09T02:25:25;25.98;;;16.52;;
51915;SDS011;37942;53.218;6.548;2022-09-09T02:27:52;26.63;;;17.20;;
51915;SDS011;37942;53.218;6.548;2022-09-09T02:30:18;27.80;;;17.33;;
51915;SDS011;37942;53.218;6.548;2022-09-09T02:32:45;29.30;;;17.15;;
51915;SDS011;37942;53.218;6.548;2022-09-09T02:35:13;27.42;;;17.63;;
51915;SDS011;37942;53.218;6.548;2022-09-09T02:37:40;29.75;;;19.05;;
51915;SDS011;37942;53.218;6.548;2022-09-09T02:40:11;28.42;;;17.95;;
51915;SDS011;37942;53.218;6.548;2022-09-09T02:42:48;24.23;;;17.27;;
51915;SDS011;37942;53.218;6.548;2022-09-09T02:45:24;28.83;;;17.40;;
51915;SDS011;37942;53.218;6.548;2022-09-09T02:47:59;30.02;;;19.05;;
51915;SDS011;37942;53.218;6.548;2022-09-09T02:50:32;26.88;;;17.55;;
51915;SDS011;37942;53.218;6.548;2022-09-09T02:55:38;28.85;;;17.13;;
51915;SDS011;37942;53.218;6.548;2022-09-09T02:58:05;31.17;;;17.85;;
51915;SDS011;37942;53.218;6.548;2022-09-09T03:00:34;29.05;;;17.67;;
51915;SDS011;37942;53.218;6.548;2022-09-09T03:03:02;28.20;;;16.98;;
51915;SDS011;37942;53.218;6.548;2022-09-09T03:05:28;26.45;;;17.63;;
51915;SDS011;37942;53.218;6.548;2022-09-09T03:07:54;23.70;;;16.25;;
51915;SDS011;37942;53.218;6.548;2022-09-09T03:10:21;26.38;;;17.92;;
51915;SDS011;37942;53.218;6.548;2022-09-09T03:12:48;24.17;;;16.42;;
51915;SDS011;37942;53.218;6.548;2022-09-09T03:15:15;29.27;;;17.48;;
51915;SDS011;37942;53.218;6.548;2022-09-09T03:17:41;26.77;;;16.35;;
51915;SDS011;37942;53.218;6.548;2022-09-09T03:20:07;26.50;;;16.25;;
51915;SDS011;37942;53.218;6.548;2022-09-09T03:25:00;27.80;;;16.33;;
51915;SDS011;37942;53.218;6.548;2022-09-09T03:27:30;25.15;;;15.38;;
51915;SDS011;37942;53.218;6.548;2022-09-09T03:29:56;26.65;;;16.20;;
51915;SDS011;37942;53.218;6.548;2022-09-09T03:32:22;24.75;;;15.57;;
51915;SDS011;37942;53.218;6.548;2022-09-09T03:34:50;22.45;;;14.35;;
51915;SDS011;37942;53.218;6.548;2022-09-09T03:37:17;23.83;;;14.50;;
51915;SDS011;37942;53.218;6.548;2022-09-09T03:39:43;23.60;;;14.98;;
51915;SDS011;37942;53.218;6.548;2022-09-09T03:42:12;29.20;;;14.57;;
51915;SDS011;37942;53.218;6.548;2022-09-09T03:44:39;23.20;;;14.63;;
51915;SDS011;37942;53.218;6.548;2022-09-09T03:47:07;24.13;;;13.80;;
51915;SDS011;37942;53.218;6.548;2022-09-09T03:51:59;22.48;;;11.85;;
51915;SDS011;37942;53.218;6.548;2022-09-09T03:54:26;24.00;;;11.70;;
51915;SDS011;37942;53.218;6.548;2022-09-09T03:59:18;22.85;;;11.40;;
51915;SDS011;37942;53.218;6.548;2022-09-09T04:01:45;18.67;;;10.20;;
51915;SDS011;37942;53.218;6.548;2022-09-09T04:04:12;22.92;;;10.50;;
51915;SDS011;37942;53.218;6.548;2022-09-09T04:06:38;19.17;;;8.95;;
51915;SDS011;37942;53.218;6.548;2022-09-09T04:11:30;18.95;;;8.32;;
51915;SDS011;37942;53.218;6.548;2022-09-09T04:13:56;18.83;;;8.77;;
51915;SDS011;37942;53.218;6.548;2022-09-09T04:16:22;19.45;;;8.02;;
51915;SDS011;37942;53.218;6.548;2022-09-09T04:18:48;15.15;;;7.68;;
51915;SDS011;37942;53.218;6.548;2022-09-09T04:21:14;17.20;;;7.72;;
51915;SDS011;37942;53.218;6.548;2022-09-09T04:26:07;18.17;;;7.40;;
51915;SDS011;37942;53.218;6.548;2022-09-09T04:28:34;16.77;;;7.80;;
51915;SDS011;37942;53.218;6.548;2022-09-09T04:31:08;17.80;;;7.30;;
51915;SDS011;37942;53.218;6.548;2022-09-09T04:33:34;18.70;;;7.40;;
51915;SDS011;37942;53.218;6.548;2022-09-09T04:38:26;17.02;;;6.88;;
51915;SDS011;37942;53.218;6.548;2022-09-09T04:40:54;17.85;;;7.45;;
51915;SDS011;37942;53.218;6.548;2022-09-09T04:43:21;17.50;;;8.23;;
51915;SDS011;37942;53.218;6.548;2022-09-09T04:45:48;16.13;;;7.47;;
51915;SDS011;37942;53.218;6.548;2022-09-09T04:48:14;15.88;;;7.78;;
51915;SDS011;37942;53.218;6.548;2022-09-09T04:53:06;14.30;;;7.65;;
51915;SDS011;37942;53.218;6.548;2022-09-09T04:55:33;21.73;;;8.80;;
51915;SDS011;37942;53.218;6.548;2022-09-09T04:58:06;18.73;;;8.80;;
51915;SDS011;37942;53.218;6.548;2022-09-09T05:00:33;19.70;;;8.85;;
51915;SDS011;37942;53.218;6.548;2022-09-09T05:03:03;17.88;;;9.98;;
51915;SDS011;37942;53.218;6.548;2022-09-09T05:05:30;17.98;;;9.45;;
51915;SDS011;37942;53.218;6.548;2022-09-09T05:08:03;18.50;;;9.02;;
51915;SDS011;37942;53.218;6.548;2022-09-09T05:10:30;17.75;;;9.25;;
51915;SDS011;37942;53.218;6.548;2022-09-09T05:12:56;22.10;;;9.77;;
51915;SDS011;37942;53.218;6.548;2022-09-09T05:15:23;20.83;;;10.48;;
51915;SDS011;37942;53.218;6.548;2022-09-09T05:17:49;19.50;;;10.48;;
51915;SDS011;37942;53.218;6.548;2022-09-09T05:20:17;25.30;;;11.23;;
51915;SDS011;37942;53.218;6.548;2022-09-09T05:25:09;20.60;;;10.75;;
51915;SDS011;37942;53.218;6.548;2022-09-09T05:27:35;19.42;;;11.07;;
51915;SDS011;37942;53.218;6.548;2022-09-09T05:30:02;22.45;;;11.75;;
51915;SDS011;37942;53.218;6.548;2022-09-09T05:32:30;19.52;;;11.32;;
51915;SDS011;37942;53.218;6.548;2022-09-09T05:34:58;22.92;;;12.15;;
51915;SDS011;37942;53.218;6.548;2022-09-09T05:37:24;22.45;;;12.30;;
51915;SDS011;37942;53.218;6.548;2022-09-09T05:39:50;22.90;;;12.30;;
51915;SDS011;37942;53.218;6.548;2022-09-09T05:42:16;22.42;;;12.93;;
51915;SDS011;37942;53.218;6.548;2022-09-09T05:44:42;21.85;;;12.68;;
51915;SDS011;37942;53.218;6.548;2022-09-09T05:47:10;25.02;;;13.38;;
51915;SDS011;37942;53.218;6.548;2022-09-09T05:49:36;25.55;;;13.60;;
51915;SDS011;37942;53.218;6.548;2022-09-09T05:52:02;26.45;;;13.82;;
51915;SDS011;37942;53.218;6.548;2022-09-09T05:54:29;22.02;;;14.00;;
51915;SDS011;37942;53.218;6.548;2022-09-09T05:59:21;25.63;;;15.15;;
51915;SDS011;37942;53.218;6.548;2022-09-09T06:01:48;25.35;;;15.50;;
51915;SDS011;37942;53.218;6.548;2022-09-09T06:04:14;24.85;;;14.60;;
51915;SDS011;37942;53.218;6.548;2022-09-09T06:06:41;23.05;;;14.90;;
51915;SDS011;37942;53.218;6.548;2022-09-09T06:09:08;25.05;;;14.75;;
51915;SDS011;37942;53.218;6.548;2022-09-09T06:11:36;26.60;;;14.48;;
51915;SDS011;37942;53.218;6.548;2022-09-09T06:14:02;27.70;;;14.52;;
51915;SDS011;37942;53.218;6.548;2022-09-09T06:16:29;24.15;;;14.48;;
51915;SDS011;37942;53.218;6.548;2022-09-09T06:18:57;25.83;;;14.35;;
51915;SDS011;37942;53.218;6.548;2022-09-09T06:23:50;25.23;;;13.95;;
51915;SDS011;37942;53.218;6.548;2022-09-09T06:26:18;22.05;;;14.18;;
51915;SDS011;37942;53.218;6.548;2022-09-09T06:28:45;24.88;;;14.93;;
51915;SDS011;37942;53.218;6.548;2022-09-09T06:31:13;24.15;;;13.27;;
51915;SDS011;37942;53.218;6.548;2022-09-09T06:33:41;24.73;;;13.85;;
51915;SDS011;37942;53.218;6.548;2022-09-09T06:36:12;19.98;;;12.38;;
51915;SDS011;37942;53.218;6.548;2022-09-09T06:38:40;25.50;;;13.18;;
51915;SDS011;37942;53.218;6.548;2022-09-09T06:41:07;26.23;;;14.43;;
51915;SDS011;37942;53.218;6.548;2022-09-09T06:43:34;22.63;;;13.02;;
51915;SDS011;37942;53.218;6.548;2022-09-09T06:46:01;21.70;;;12.65;;
51915;SDS011;37942;53.218;6.548;2022-09-09T06:48:28;20.77;;;12.93;;
51915;SDS011;37942;53.218;6.548;2022-09-09T06:51:07;22.25;;;12.60;;
51915;SDS011;37942;53.218;6.548;2022-09-09T06:53:37;31.77;;;14.00;;
51915;SDS011;37942;53.218;6.548;2022-09-09T06:58:36;21.17;;;13.05;;
51915;SDS011;37942;53.218;6.548;2022-09-09T07:01:05;21.42;;;12.35;;
51915;SDS011;37942;53.218;6.548;2022-09-09T07:03:32;23.23;;;13.30;;
51915;SDS011;37942;53.218;6.548;2022-09-09T07:05:59;19.70;;;12.65;;
51915;SDS011;37942;53.218;6.548;2022-09-09T07:08:25;20.23;;;12.98;;
51915;SDS011;37942;53.218;6.548;2022-09-09T07:10:52;18.98;;;11.75;;
51915;SDS011;37942;53.218;6.548;2022-09-09T07:13:25;21.08;;;11.90;;
51915;SDS011;37942;53.218;6.548;2022-09-09T07:15:52;20.67;;;11.75;;
51915;SDS011;37942;53.218;6.548;2022-09-09T07:18:19;19.48;;;12.18;;
51915;SDS011;37942;53.218;6.548;2022-09-09T07:20:54;21.65;;;11.20;;
51915;SDS011;37942;53.218;6.548;2022-09-09T07:23:22;23.50;;;11.65;;
51915;SDS011;37942;53.218;6.548;2022-09-09T07:25:49;25.58;;;11.90;;
51915;SDS011;37942;53.218;6.548;2022-09-09T07:28:16;19.90;;;11.43;;
51915;SDS011;37942;53.218;6.548;2022-09-09T07:30:42;17.23;;;11.05;;
51915;SDS011;37942;53.218;6.548;2022-09-09T07:33:11;19.88;;;11.65;;
51915;SDS011;37942;53.218;6.548;2022-09-09T07:35:37;20.63;;;11.43;;
51915;SDS011;37942;53.218;6.548;2022-09-09T07:42:57;21.70;;;11.30;;
51915;SDS011;37942;53.218;6.548;2022-09-09T07:45:24;21.02;;;11.30;;
51915;SDS011;37942;53.218;6.548;2022-09-09T07:47:53;16.75;;;10.38;;
51915;SDS011;37942;53.218;6.548;2022-09-09T07:50:22;18.00;;;10.23;;
51915;SDS011;37942;53.218;6.548;2022-09-09T07:52:48;17.35;;;10.43;;
51915;SDS011;37942;53.218;6.548;2022-09-09T07:57:41;17.20;;;9.88;;
51915;SDS011;37942;53.218;6.548;2022-09-09T08:00:07;17.75;;;10.88;;
51915;SDS011;37942;53.218;6.548;2022-09-09T08:02:36;19.10;;;10.48;;
51915;SDS011;37942;53.218;6.548;2022-09-09T08:05:02;19.63;;;10.57;;
51915;SDS011;37942;53.218;6.548;2022-09-09T08:07:29;17.80;;;9.15;;
51915;SDS011;37942;53.218;6.548;2022-09-09T08:09:55;17.23;;;9.25;;
51915;SDS011;37942;53.218;6.548;2022-09-09T08:12:22;19.08;;;9.43;;
51915;SDS011;37942;53.218;6.548;2022-09-09T08:17:14;17.48;;;9.10;;
51915;SDS011;37942;53.218;6.548;2022-09-09T08:19:40;18.40;;;10.18;;
51915;SDS011;37942;53.218;6.548;2022-09-09T08:22:06;19.08;;;9.48;;
51915;SDS011;37942;53.218;6.548;2022-09-09T08:24:33;18.38;;;8.75;;
51915;SDS011;37942;53.218;6.548;2022-09-09T08:27:01;17.38;;;9.38;;
51915;SDS011;37942;53.218;6.548;2022-09-09T08:29:27;16.95;;;9.15;;
51915;SDS011;37942;53.218;6.548;2022-09-09T08:31:54;17.52;;;9.48;;
51915;SDS011;37942;53.218;6.548;2022-09-09T08:34:22;19.80;;;9.77;;
51915;SDS011;37942;53.218;6.548;2022-09-09T08:36:49;18.48;;;8.98;;
51915;SDS011;37942;53.218;6.548;2022-09-09T08:39:17;18.33;;;8.70;;
51915;SDS011;37942;53.218;6.548;2022-09-09T08:52:15;22.42;;;9.10;;
51915;SDS011;37942;53.218;6.548;2022-09-09T08:54:43;14.93;;;8.80;;
51915;SDS011;37942;53.218;6.548;2022-09-09T08:57:11;18.02;;;9.20;;
51915;SDS011;37942;53.218;6.548;2022-09-09T08:59:39;14.02;;;8.20;;
51915;SDS011;37942;53.218;6.548;2022-09-09T09:02:21;18.45;;;8.15;;
51915;SDS011;37942;53.218;6.548;2022-09-09T09:04:52;15.48;;;8.02;;
51915;SDS011;37942;53.218;6.548;2022-09-09T09:09:58;15.55;;;8.20;;
51915;SDS011;37942;53.218;6.548;2022-09-09T09:12:29;18.00;;;8.07;;
51915;SDS011;37942;53.218;6.548;2022-09-09T09:14:55;19.33;;;8.77;;
51915;SDS011;37942;53.218;6.548;2022-09-09T09:17:24;16.60;;;8.27;;
51915;SDS011;37942;53.218;6.548;2022-09-09T09:19:52;17.85;;;8.15;;
51915;SDS011;37942;53.218;6.548;2022-09-09T09:24:55;16.77;;;7.65;;
51915;SDS011;37942;53.218;6.548;2022-09-09T09:27:32;17.95;;;7.75;;
51915;SDS011;37942;53.218;6.548;2022-09-09T09:29:59;22.13;;;9.18;;
51915;SDS011;37942;53.218;6.548;2022-09-09T09:32:26;16.00;;;8.20;;
51915;SDS011;37942;53.218;6.548;2022-09-09T09:34:56;23.85;;;9.27;;
51915;SDS011;37942;53.218;6.548;2022-09-09T09:37:28;20.70;;;7.93;;
51915;SDS011;37942;53.218;6.548;2022-09-09T09:39:55;20.52;;;8.75;;
51915;SDS011;37942;53.218;6.548;2022-09-09T09:44:47;16.95;;;7.80;;
51915;SDS011;37942;53.218;6.548;2022-09-09T09:49:39;17.67;;;8.10;;
51915;SDS011;37942;53.218;6.548;2022-09-09T09:52:21;18.27;;;7.88;;
51915;SDS011;37942;53.218;6.548;2022-09-09T09:54:48;18.70;;;8.13;;
51915;SDS011;37942;53.218;6.548;2022-09-09T09:59:41;18.00;;;8.52;;
51915;SDS011;37942;53.218;6.548;2022-09-09T10:02:21;18.40;;;8.23;;
51915;SDS011;37942;53.218;6.548;2022-09-09T10:05:05;20.40;;;7.82;;
51915;SDS011;37942;53.218;6.548;2022-09-09T10:07:31;17.30;;;7.55;;
51915;SDS011;37942;53.218;6.548;2022-09-09T10:09:58;17.40;;;7.50;;
51915;SDS011;37942;53.218;6.548;2022-09-09T10:20:25;18.92;;;6.70;;
51915;SDS011;37942;53.218;6.548;2022-09-09T10:28:37;12.60;;;4.70;;
51915;SDS011;37942;53.218;6.548;2022-09-09T10:33:43;18.77;;;5.10;;
51915;SDS011;37942;53.218;6.548;2022-09-09T10:36:13;17.65;;;5.20;;
51915;SDS011;37942;53.218;6.548;2022-09-09T10:38:46;16.60;;;5.40;;
51915;SDS011;37942;53.218;6.548;2022-09-09T10:41:16;20.17;;;5.38;;
51915;SDS011;37942;53.218;6.548;2022-09-09T10:56:56;15.70;;;4.13;;
51915;SDS011;37942;53.218;6.548;2022-09-09T10:59:25;17.55;;;4.60;;
51915;SDS011;37942;53.218;6.548;2022-09-09T11:01:53;15.50;;;4.30;;
51915;SDS011;37942;53.218;6.548;2022-09-09T11:07:18;13.80;;;3.97;;
51915;SDS011;37942;53.218;6.548;2022-09-09T11:09:49;14.07;;;3.72;;
51915;SDS011;37942;53.218;6.548;2022-09-09T11:12:18;15.02;;;3.85;;
51915;SDS011;37942;53.218;6.548;2022-09-09T11:14:53;13.38;;;3.40;;
51915;SDS011;37942;53.218;6.548;2022-09-09T11:17:23;14.07;;;3.53;;
51915;SDS011;37942;53.218;6.548;2022-09-09T11:19:50;11.63;;;3.20;;
51915;SDS011;37942;53.218;6.548;2022-09-09T11:22:26;12.30;;;3.20;;
51915;SDS011;37942;53.218;6.548;2022-09-09T11:24:56;14.25;;;3.35;;
51915;SDS011;37942;53.218;6.548;2022-09-09T11:27:29;11.75;;;3.10;;
51915;SDS011;37942;53.218;6.548;2022-09-09T11:33:05;10.85;;;2.92;;
51915;SDS011;37942;53.218;6.548;2022-09-09T11:40:45;12.80;;;3.60;;
51915;SDS011;37942;53.218;6.548;2022-09-09T11:43:16;13.63;;;3.80;;
51915;SDS011;37942;53.218;6.548;2022-09-09T11:45:56;13.07;;;3.08;;
51915;SDS011;37942;53.218;6.548;2022-09-09T11:51:12;13.50;;;3.58;;
51915;SDS011;37942;53.218;6.548;2022-09-09T11:53:48;11.88;;;3.38;;
51915;SDS011;37942;53.218;6.548;2022-09-09T11:56:23;14.88;;;3.58;;
51915;SDS011;37942;53.218;6.548;2022-09-09T11:58:54;12.65;;;3.58;;
51915;SDS011;37942;53.218;6.548;2022-09-09T12:01:34;11.57;;;3.15;;
51915;SDS011;37942;53.218;6.548;2022-09-09T12:04:11;13.70;;;3.10;;
51915;SDS011;37942;53.218;6.548;2022-09-09T12:06:45;11.30;;;3.30;;
51915;SDS011;37942;53.218;6.548;2022-09-09T12:11:50;11.93;;;3.35;;
51915;SDS011;37942;53.218;6.548;2022-09-09T12:14:23;13.27;;;3.22;;
51915;SDS011;37942;53.218;6.548;2022-09-09T12:19:42;15.02;;;3.63;;
51915;SDS011;37942;53.218;6.548;2022-09-09T12:22:15;13.85;;;3.58;;
51915;SDS011;37942;53.218;6.548;2022-09-09T12:27:17;14.95;;;3.05;;
51915;SDS011;37942;53.218;6.548;2022-09-09T12:29:49;11.25;;;3.00;;
51915;SDS011;37942;53.218;6.548;2022-09-09T12:32:24;11.38;;;3.10;;
51915;SDS011;37942;53.218;6.548;2022-09-09T12:39:50;13.65;;;3.25;;
51915;SDS011;37942;53.218;6.548;2022-09-09T12:42:18;13.48;;;2.80;;
51915;SDS011;37942;53.218;6.548;2022-09-09T12:44:51;10.93;;;2.88;;
51915;SDS011;37942;53.218;6.548;2022-09-09T12:47:17;10.63;;;3.00;;
51915;SDS011;37942;53.218;6.548;2022-09-09T12:49:44;11.18;;;2.70;;
51915;SDS011;37942;53.218;6.548;2022-09-09T12:52:14;11.18;;;2.80;;
51915;SDS011;37942;53.218;6.548;2022-09-09T12:54:45;14.38;;;3.13;;
51915;SDS011;37942;53.218;6.548;2022-09-09T12:57:13;10.52;;;3.33;;
51915;SDS011;37942;53.218;6.548;2022-09-09T12:59:40;13.63;;;3.00;;
51915;SDS011;37942;53.218;6.548;2022-09-09T13:02:11;14.27;;;3.70;;
51915;SDS011;37942;53.218;6.548;2022-09-09T13:04:42;13.43;;;3.35;;
51915;SDS011;37942;53.218;6.548;2022-09-09T13:07:12;9.25;;;2.85;;
51915;SDS011;37942;53.218;6.548;2022-09-09T13:09:39;11.10;;;3.13;;
51915;SDS011;37942;53.218;6.548;2022-09-09T13:12:05;10.98;;;3.30;;
51915;SDS011;37942;53.218;6.548;2022-09-09T13:14:37;12.80;;;3.25;;
51915;SDS011;37942;53.218;6.548;2022-09-09T13:19:29;12.15;;;3.80;;
51915;SDS011;37942;53.218;6.548;2022-09-09T13:21:57;11.95;;;4.03;;
51915;SDS011;37942;53.218;6.548;2022-09-09T13:26:56;14.30;;;3.60;;
51915;SDS011;37942;53.218;6.548;2022-09-09T13:29:23;13.38;;;3.40;;
51915;SDS011;37942;53.218;6.548;2022-09-09T13:31:49;12.60;;;3.20;;
51915;SDS011;37942;53.218;6.548;2022-09-09T13:37:56;11.50;;;3.20;;
51915;SDS011;37942;53.218;6.548;2022-09-09T13:40:04;12.30;;;2.97;;
51915;SDS011;37942;53.218;6.548;2022-09-09T13:42:32;11.98;;;3.22;;
51915;SDS011;37942;53.218;6.548;2022-09-09T13:45:00;9.45;;;3.05;;
51915;SDS011;37942;53.218;6.548;2022-09-09T13:47:33;11.93;;;2.83;;
51915;SDS011;37942;53.218;6.548;2022-09-09T13:50:09;12.52;;;3.08;;
51915;SDS011;37942;53.218;6.548;2022-09-09T13:52:36;14.00;;;3.38;;
51915;SDS011;37942;53.218;6.548;2022-09-09T13:55:02;11.30;;;2.80;;
51915;SDS011;37942;53.218;6.548;2022-09-09T13:59:54;11.68;;;3.08;;
51915;SDS011;37942;53.218;6.548;2022-09-09T14:02:20;12.40;;;2.90;;
51915;SDS011;37942;53.218;6.548;2022-09-09T14:04:48;11.05;;;2.92;;
51915;SDS011;37942;53.218;6.548;2022-09-09T14:07:17;10.65;;;2.35;;
51915;SDS011;37942;53.218;6.548;2022-09-09T14:09:43;9.15;;;2.30;;
51915;SDS011;37942;53.218;6.548;2022-09-09T14:12:11;10.68;;;2.45;;
51915;SDS011;37942;53.218;6.548;2022-09-09T14:14:37;12.15;;;2.60;;
51915;SDS011;37942;53.218;6.548;2022-09-09T14:17:03;11.90;;;2.50;;
51915;SDS011;37942;53.218;6.548;2022-09-09T14:21:56;10.98;;;2.50;;
51915;SDS011;37942;53.218;6.548;2022-09-09T14:24:22;9.38;;;2.53;;
51915;SDS011;37942;53.218;6.548;2022-09-09T14:29:14;12.25;;;3.60;;
51915;SDS011;37942;53.218;6.548;2022-09-09T14:31:40;9.18;;;2.50;;
51915;SDS011;37942;53.218;6.548;2022-09-09T14:34:06;11.55;;;2.30;;
51915;SDS011;37942;53.218;6.548;2022-09-09T14:39:01;12.35;;;3.35;;
51915;SDS011;37942;53.218;6.548;2022-09-09T14:41:30;10.68;;;2.63;;
51915;SDS011;37942;53.218;6.548;2022-09-09T14:43:56;8.80;;;2.53;;
51915;SDS011;37942;53.218;6.548;2022-09-09T14:46:23;8.23;;;2.35;;
51915;SDS011;37942;53.218;6.548;2022-09-09T14:48:50;5.93;;;1.90;;
51915;SDS011;37942;53.218;6.548;2022-09-09T14:51:20;6.18;;;1.80;;
51915;SDS011;37942;53.218;6.548;2022-09-09T14:53:52;5.95;;;1.70;;
51915;SDS011;37942;53.218;6.548;2022-09-09T14:56:20;8.20;;;2.00;;
51915;SDS011;37942;53.218;6.548;2022-09-09T14:58:48;7.65;;;1.80;;
51915;SDS011;37942;53.218;6.548;2022-09-09T15:03:40;6.50;;;2.13;;
51915;SDS011;37942;53.218;6.548;2022-09-09T15:06:11;5.60;;;2.00;;
51915;SDS011;37942;53.218;6.548;2022-09-09T15:08:38;5.57;;;2.10;;
51915;SDS011;37942;53.218;6.548;2022-09-09T15:11:04;6.78;;;1.88;;
51915;SDS011;37942;53.218;6.548;2022-09-09T15:13:35;6.20;;;1.80;;
51915;SDS011;37942;53.218;6.548;2022-09-09T15:18:34;6.47;;;2.10;;
51915;SDS011;37942;53.218;6.548;2022-09-09T15:21:08;6.53;;;1.92;;
51915;SDS011;37942;53.218;6.548;2022-09-09T15:23:35;11.82;;;2.80;;
51915;SDS011;37942;53.218;6.548;2022-09-09T15:26:01;9.10;;;2.70;;
51915;SDS011;37942;53.218;6.548;2022-09-09T15:28:28;10.50;;;2.80;;
51915;SDS011;37942;53.218;6.548;2022-09-09T15:30:54;11.15;;;2.80;;
51915;SDS011;37942;53.218;6.548;2022-09-09T15:33:22;9.80;;;2.40;;
51915;SDS011;37942;53.218;6.548;2022-09-09T15:35:48;9.88;;;2.28;;
51915;SDS011;37942;53.218;6.548;2022-09-09T15:38:15;11.43;;;3.28;;
51915;SDS011;37942;53.218;6.548;2022-09-09T15:40:42;9.82;;;2.83;;
51915;SDS011;37942;53.218;6.548;2022-09-09T15:43:09;10.07;;;2.50;;
51915;SDS011;37942;53.218;6.548;2022-09-09T15:45:36;10.77;;;2.83;;
51915;SDS011;37942;53.218;6.548;2022-09-09T15:48:02;8.35;;;2.85;;
51915;SDS011;37942;53.218;6.548;2022-09-09T15:50:29;12.73;;;2.92;;
51915;SDS011;37942;53.218;6.548;2022-09-09T15:53:01;6.03;;;2.25;;
51915;SDS011;37942;53.218;6.548;2022-09-09T15:57:53;9.50;;;2.85;;
51915;SDS011;37942;53.218;6.548;2022-09-09T16:00:20;8.82;;;3.17;;
51915;SDS011;37942;53.218;6.548;2022-09-09T16:02:47;7.35;;;2.40;;
51915;SDS011;37942;53.218;6.548;2022-09-09T16:05:14;9.90;;;2.47;;
51915;SDS011;37942;53.218;6.548;2022-09-09T16:07:40;7.85;;;2.33;;
51915;SDS011;37942;53.218;6.548;2022-09-09T16:10:08;8.25;;;2.20;;
51915;SDS011;37942;53.218;6.548;2022-09-09T16:12:34;7.18;;;2.40;;
51915;SDS011;37942;53.218;6.548;2022-09-09T16:15:00;5.95;;;2.03;;
51915;SDS011;37942;53.218;6.548;2022-09-09T16:19:52;10.17;;;2.70;;
51915;SDS011;37942;53.218;6.548;2022-09-09T16:22:19;6.28;;;2.15;;
51915;SDS011;37942;53.218;6.548;2022-09-09T16:24:45;7.90;;;2.30;;
51915;SDS011;37942;53.218;6.548;2022-09-09T16:27:13;6.93;;;2.60;;
51915;SDS011;37942;53.218;6.548;2022-09-09T16:29:39;6.10;;;2.00;;
51915;SDS011;37942;53.218;6.548;2022-09-09T16:32:07;6.88;;;2.20;;
51915;SDS011;37942;53.218;6.548;2022-09-09T16:34:33;9.85;;;2.50;;
51915;SDS011;37942;53.218;6.548;2022-09-09T16:37:00;10.90;;;2.83;;
51915;SDS011;37942;53.218;6.548;2022-09-09T16:39:27;8.93;;;2.60;;
51915;SDS011;37942;53.218;6.548;2022-09-09T16:41:53;6.63;;;2.00;;
51915;SDS011;37942;53.218;6.548;2022-09-09T16:44:19;9.93;;;3.03;;
51915;SDS011;37942;53.218;6.548;2022-09-09T16:46:45;10.18;;;2.50;;
51915;SDS011;37942;53.218;6.548;2022-09-09T16:49:13;9.70;;;2.72;;
51915;SDS011;37942;53.218;6.548;2022-09-09T16:51:49;9.25;;;2.67;;
51915;SDS011;37942;53.218;6.548;2022-09-09T16:54:19;9.77;;;2.85;;
51915;SDS011;37942;53.218;6.548;2022-09-09T16:56:46;12.10;;;2.92;;
51915;SDS011;37942;53.218;6.548;2022-09-09T16:59:13;9.98;;;2.35;;
51915;SDS011;37942;53.218;6.548;2022-09-09T17:01:40;7.25;;;2.20;;
51915;SDS011;37942;53.218;6.548;2022-09-09T17:04:14;19.02;;;6.50;;
51915;SDS011;37942;53.218;6.548;2022-09-09T17:06:45;7.53;;;2.65;;
51915;SDS011;37942;53.218;6.548;2022-09-09T17:09:11;10.43;;;2.63;;
51915;SDS011;37942;53.218;6.548;2022-09-09T17:11:38;8.35;;;2.85;;
51915;SDS011;37942;53.218;6.548;2022-09-09T17:14:05;10.27;;;3.38;;
51915;SDS011;37942;53.218;6.548;2022-09-09T17:16:31;8.50;;;2.70;;
51915;SDS011;37942;53.218;6.548;2022-09-09T17:18:59;10.85;;;3.33;;
51915;SDS011;37942;53.218;6.548;2022-09-09T17:21:26;9.02;;;3.10;;
51915;SDS011;37942;53.218;6.548;2022-09-09T17:23:53;10.75;;;3.70;;
51915;SDS011;37942;53.218;6.548;2022-09-09T17:26:20;11.13;;;3.25;;
51915;SDS011;37942;53.218;6.548;2022-09-09T17:28:46;11.57;;;3.30;;
51915;SDS011;37942;53.218;6.548;2022-09-09T17:31:15;8.20;;;3.25;;
51915;SDS011;37942;53.218;6.548;2022-09-09T17:33:41;10.68;;;3.97;;
51915;SDS011;37942;53.218;6.548;2022-09-09T17:36:09;12.00;;;3.30;;